Airfield :
LOGIN :

Register | Disclaimer

   EN    FR    IT 

 










Legend :    VFR   Marginal VFR   IFR   Intensive IFR   Very Intensive IFR
Visi :
Ceiling :
>= 8 km
>= 3000ft
5 to 8 km
1000 to 3000 ft
1500m to 5 km
500 to 1000 ft
800 to 1500m
200 to 500 ft
< 800m
< 200 ft
Symbols :   Thunderstorms  Fog  Heavy snow  Heavy precipitations  Wind > 20 kt
SIGMETs :     Misc.  Thunderstorms  Icing  Turbulence  Mountain Waves  Volcanic Ashes






- Airport Elevation : 26 ft
- IATA code : GLA


EGPF - Glasgow

CURRENT METAR :
  • 040720Z AUTO 15008KT 080V180 9999 -RA BKN014/// BKN030/// OVC038/// //////TCU 12/11 Q1008

EXPIRED METARs :
  • 040650Z AUTO 13005KT 090V150 9999 -RA BKN013/// OVC044/// //////TCU 12/11 Q1009
  • 040620Z AUTO 17006KT 9999 -RA FEW014/// SCT019/// BKN037/// //////TCU 12/11 Q1009
  • 040550Z AUTO 16006KT 9999 -RA SCT014/// OVC033/// //////TCU 12/11 Q1009
  • 040520Z AUTO 15006KT 9999 -RA BKN043/// //////TCU 12/10 Q1010
  • 040450Z AUTO 16006KT 9999 -RA //////CB 12/10 Q1011

TAF TAF EGPF
Valid from the 04 at 06:00 until the 05 at 06:00 UTC


040500Z 0406/0506 21005KT 9999 FEW015 BKN025
TEMPO 0406/0422 6000 RA RADZ BKN012
BECMG 0408/0411 15015KT
PROB40
TEMPO 0408/0418 3000 +RA BKN007
TEMPO 0411/0421 23020G30KT
BECMG 0421/0424 24012KT
TEMPO 0422/0506 4000 RADZ BKN008
ATIS : +44 141 887 7449



MET'MAP, your aeronautical weather chart ! - Copyright ORBIFLY December 2007 - Disclaimer

ORBIFLY MET'MAP TEAM :

Programming & Development : Alexandra Zaïnal
Concept & original design : Baudouin d'Aumeries
Assistance for programming : Marc-Olivier Méhu
Technical & hardware support : Manuel Goepfert

Contact : metmap@orbifly.com




SOURCES & CREDITS :

   NOAA